Time;durP1;ratioP1;P1;durP2;ratioP2;P2;SDS_P1;SDS_P2;PMS_P1;PMS_P2;Temp;Humidity;BMP_temperature;BMP_pressure;BME280_temperature;BME280_humidity;BME280_pressure;Samples;Min_cycle;Max_cycle;Signal;HPM_P1;HPM_P2
2023/01/21 00:02:17;;;;;;;52.30;18.00;;;;;;;-1.24;87.90;101322.39;111158;1209;97714;-62
2023/01/21 00:04:42;;;;;;;47.10;17.30;;;;;;;-1.25;87.68;101314.82;111062;1208;140072;-62
2023/01/21 00:07:08;;;;;;;48.90;17.30;;;;;;;-1.28;87.41;101310.39;111149;1209;97635;-62
2023/01/21 00:09:33;;;;;;;52.10;16.40;;;;;;;-1.35;87.57;101303.80;111144;1208;97684;-62
2023/01/21 00:12:01;;;;;;;47.30;17.30;;;;;;;-1.36;87.81;101300.97;110965;1208;140534;-61
2023/01/21 00:14:28;;;;;;;51.60;18.30;;;;;;;-1.34;87.67;101304.52;111225;1206;97619;-62
2023/01/21 00:16:54;;;;;;;55.80;18.80;;;;;;;-1.35;87.90;101305.55;111193;1209;139501;-62
2023/01/21 00:19:19;;;;;;;48.20;16.70;;;;;;;-1.38;87.66;101307.79;111110;1209;97694;-62
2023/01/21 00:21:44;;;;;;;49.30;16.50;;;;;;;-1.39;87.65;101308.46;111069;1205;140572;-62
2023/01/21 00:24:10;;;;;;;45.60;16.80;;;;;;;-1.39;87.61;101310.05;111206;1206;97627;-61
2023/01/21 00:26:35;;;;;;;42.30;15.80;;;;;;;-1.39;87.61;101315.64;111163;1209;97594;-61
2023/01/21 00:29:00;;;;;;;51.30;16.10;;;;;;;-1.44;87.68;101316.98;111025;1206;140343;-62
2023/01/21 00:31:26;;;;;;;49.30;16.60;;;;;;;-1.43;87.78;101316.98;111158;1209;97568;-61
2023/01/21 00:33:51;;;;;;;45.50;16.60;;;;;;;-1.45;87.83;101317.14;111031;1206;139676;-61
2023/01/21 00:36:17;;;;;;;41.70;16.50;;;;;;;-1.48;87.77;101321.82;111214;1218;97700;-61
2023/01/21 00:38:44;;;;;;;38.70;14.60;;;;;;;-1.48;87.79;101325.50;111095;1208;97799;-62
2023/01/21 00:41:12;;;;;;;43.60;14.80;;;;;;;-1.48;87.80;101328.30;111014;1208;140893;-61
2023/01/21 00:43:39;;;;;;;45.70;15.60;;;;;;;-1.49;87.84;101333.71;111114;1208;98660;-61
2023/01/21 00:46:05;;;;;;;46.60;17.80;;;;;;;-1.50;87.88;101333.70;111029;1206;141178;-61
2023/01/21 00:48:31;;;;;;;48.80;15.40;;;;;;;-1.51;87.84;101332.27;111068;1206;99160;-61
2023/01/21 00:51:00;;;;;;;43.70;16.10;;;;;;;-1.49;88.06;101338.63;111109;1206;97591;-62
2023/01/21 00:53:27;;;;;;;55.00;17.80;;;;;;;-1.47;87.92;101348.65;111046;1206;139745;-62
2023/01/21 00:55:52;;;;;;;45.70;17.30;;;;;;;-1.48;87.99;101359.68;111115;1208;97760;-64
2023/01/21 00:58:18;;;;;;;51.60;16.60;;;;;;;-1.46;87.82;101363.39;110963;1209;139511;-64
2023/01/21 01:00:43;;;;;;;46.40;16.70;;;;;;;-1.47;88.01;101365.66;111194;1206;97627;-63
2023/01/21 01:03:08;;;;;;;48.50;16.10;;;;;;;-1.48;87.86;101370.55;111085;1208;97671;-63
2023/01/21 01:05:34;;;;;;;44.90;16.70;;;;;;;-1.48;87.97;101375.44;111065;1209;138810;-63
2023/01/21 01:07:59;;;;;;;46.30;15.40;;;;;;;-1.49;88.12;101371.94;111100;1209;97594;-61
2023/01/21 01:10:24;;;;;;;55.00;19.80;;;;;;;-1.47;88.12;101374.94;110928;1212;139995;-61
2023/01/21 01:12:50;;;;;;;48.90;17.00;;;;;;;-1.48;88.08;101373.88;111052;1208;98464;-61
2023/01/21 01:15:15;;;;;;;55.50;20.10;;;;;;;-1.50;88.09;101374.73;111174;1206;97763;-63
2023/01/21 01:17:40;;;;;;;45.10;14.60;;;;;;;-1.50;88.18;101365.95;111106;1208;139344;-63
2023/01/21 01:20:07;;;;;;;54.40;18.00;;;;;;;-1.48;88.21;101360.73;111082;1208;98174;-61
2023/01/21 01:22:32;;;;;;;52.00;17.70;;;;;;;-1.50;88.07;101361.22;111054;1206;138691;-61
2023/01/21 01:24:57;;;;;;;52.60;17.70;;;;;;;-1.50;87.97;101367.00;111155;1208;97639;-61
2023/01/21 01:27:23;;;;;;;55.80;20.20;;;;;;;-1.47;88.16;101369.32;111188;1208;97696;-61
2023/01/21 01:29:49;;;;;;;50.50;17.70;;;;;;;-1.44;88.29;101369.92;111050;1208;138658;-61
2023/01/21 01:32:14;;;;;;;53.40;17.80;;;;;;;-1.41;88.45;101368.03;111214;1208;97600;-61
2023/01/21 01:34:39;;;;;;;55.90;19.00;;;;;;;-1.41;88.20;101371.20;110904;1209;138751;-62
2023/01/21 01:37:05;;;;;;;56.30;17.80;;;;;;;-1.39;88.31;101373.85;111156;1205;97579;-62
2023/01/21 01:39:31;;;;;;;53.20;19.60;;;;;;;-1.38;88.31;101373.52;111101;1206;107993;-62
2023/01/21 01:41:57;;;;;;;49.60;17.50;;;;;;;-1.37;88.40;101370.73;111006;1208;140425;-61
2023/01/21 01:44:53;;;;;;;51.90;16.80;;;;;;;-1.36;88.42;101374.27;111208;1208;97662;-62
2023/01/21 01:47:20;;;;;;;53.40;18.60;;;;;;;-1.32;88.31;101377.48;111008;1209;139893;-61
2023/01/21 01:49:46;;;;;;;55.10;18.20;;;;;;;-1.32;88.32;101372.23;111030;1206;97813;-62
2023/01/21 01:52:15;;;;;;;52.50;17.90;;;;;;;-1.32;88.23;101375.55;110976;1209;141370;-61
2023/01/21 01:54:44;;;;;;;60.60;21.10;;;;;;;-1.31;88.36;101374.69;111197;1210;97373;-62
2023/01/21 01:57:13;;;;;;;52.80;18.50;;;;;;;-1.26;88.54;101376.70;111280;1208;109871;-62
2023/01/21 01:59:39;;;;;;;49.40;17.10;;;;;;;-1.24;88.55;101375.69;111058;1209;140725;-62
2023/01/21 02:02:08;;;;;;;55.10;18.00;;;;;;;-1.22;88.41;101369.93;111045;1206;97717;-62
2023/01/21 02:04:41;;;;;;;58.40;19.70;;;;;;;-1.20;88.60;101366.80;110921;1212;139998;-62
2023/01/21 02:07:07;;;;;;;49.60;18.50;;;;;;;-1.17;88.61;101365.80;111062;1206;98050;-62
2023/01/21 02:09:32;;;;;;;44.30;16.20;;;;;;;-1.15;88.63;101363.73;111113;1206;96469;-62
2023/01/21 02:12:00;;;;;;;50.10;18.00;;;;;;;-1.11;88.45;101365.01;110963;1209;139085;-62
2023/01/21 02:14:28;;;;;;;54.40;17.70;;;;;;;-1.11;88.61;101368.34;111111;1206;97719;-62
2023/01/21 02:17:12;;;;;;;51.30;16.80;;;;;;;-1.09;88.63;101363.98;110969;1208;140529;-62
2023/01/21 02:19:58;;;;;;;49.30;17.10;;;;;;;-1.09;88.53;101364.35;111117;1206;111732;-62
2023/01/21 02:23:07;;;;;;;52.60;17.70;;;;;;;-1.06;88.65;101371.05;110922;1206;139549;-62
2023/01/21 02:26:19;;;;;;;50.50;17.80;;;;;;;-1.04;88.83;101369.68;111057;1208;108016;-62
2023/01/21 02:29:15;;;;;;;54.50;19.00;;;;;;;-1.02;88.71;101365.34;111003;1209;139653;-62
2023/01/21 02:32:32;;;;;;;53.80;19.40;;;;;;;-0.99;88.62;101360.11;111134;1206;98183;-62
2023/01/21 02:35:11;;;;;;;59.60;20.00;;;;;;;-0.95;88.80;101358.23;110750;1206;139709;-62
2023/01/21 02:37:50;;;;;;;57.60;17.60;;;;;;;-0.91;88.72;101356.02;111147;1208;99398;-62
2023/01/21 02:40:26;;;;;;;41.20;15.20;;;;;;;-0.87;88.86;101359.05;111022;1206;140406;-62
2023/01/21 02:43:09;;;;;;;46.40;17.90;;;;;;;-0.84;88.71;101357.36;111202;1224;101209;-61
2023/01/21 02:45:38;;;;;;;48.30;18.00;;;;;;;-0.80;88.72;101351.96;111073;1209;97671;-63
2023/01/21 02:48:30;;;;;;;43.70;15.40;;;;;;;-0.78;88.65;101354.81;111095;1209;111339;-61
2023/01/21 02:50:56;;;;;;;45.10;16.00;;;;;;;-0.75;88.86;101351.16;111153;1209;99750;-61
2023/01/21 02:53:30;;;;;;;46.70;16.70;;;;;;;-0.75;88.89;101349.41;110998;1208;139247;-61
2023/01/21 02:56:01;;;;;;;47.40;15.70;;;;;;;-0.74;88.75;101349.23;111069;1206;97654;-61
2023/01/21 02:58:32;;;;;;;48.80;16.30;;;;;;;-0.73;88.81;101352.42;111122;1206;140435;-62
2023/01/21 03:01:23;;;;;;;45.50;15.90;;;;;;;-0.71;88.74;101355.08;111120;1209;111494;-62
2023/01/21 03:04:14;;;;;;;41.50;14.20;;;;;;;-0.68;88.83;101355.13;111016;1208;139308;-62
2023/01/21 03:07:07;;;;;;;42.60;16.70;;;;;;;-0.64;88.85;101359.21;111107;1208;107661;-62
2023/01/21 03:09:34;;;;;;;49.40;16.50;;;;;;;-0.63;88.89;101356.40;111127;1208;97671;-62
2023/01/21 03:12:02;;;;;;;42.00;15.40;;;;;;;-0.62;88.92;101360.29;111126;1209;139340;-62
2023/01/21 03:17:47;;;;;;;36.50;14.00;;;;;;;-0.58;88.93;101361.92;111002;1206;140525;-62
2023/01/21 03:20:39;;;;;;;40.00;14.20;;;;;;;-0.56;88.85;101355.45;110902;1206;108062;-62
2023/01/21 03:23:09;;;;;;;45.00;15.80;;;;;;;-0.55;88.86;101353.89;110937;1221;140912;-62
2023/01/21 03:25:36;;;;;;;38.60;14.70;;;;;;;-0.56;88.79;101352.65;111120;1210;97579;-62
2023/01/21 03:28:07;;;;;;;41.60;16.00;;;;;;;-0.56;88.90;101347.73;111164;1208;140850;-62
2023/01/21 03:30:33;;;;;;;;;;;;;;;-0.56;88.95;101353.70;111205;1206;99986;-62
2023/01/21 03:33:00;;;;;;;47.70;16.50;;;;;;;-0.55;88.79;101354.06;111095;1209;97659;-62
2023/01/21 03:35:32;;;;;;;53.20;16.70;;;;;;;-0.55;88.83;101350.37;110938;1206;139149;-62
2023/01/21 03:38:04;;;;;;;37.70;14.60;;;;;;;-0.56;88.89;101348.78;111144;1206;98004;-62
2023/01/21 03:40:40;;;;;;;43.10;15.60;;;;;;;-0.56;88.89;101350.89;111023;1222;139919;-62
2023/01/21 03:43:06;;;;;;;39.70;16.00;;;;;;;-0.56;88.93;101351.24;111107;1209;99809;-62
2023/01/21 03:45:37;;;;;;;38.20;14.20;;;;;;;-0.57;88.81;101347.20;111103;1208;97617;-62
2023/01/21 03:48:15;;;;;;;42.90;15.40;;;;;;;-0.58;88.59;101349.29;110966;1210;101766;-62
2023/01/21 03:50:46;;;;;;;39.50;14.60;;;;;;;-0.60;88.65;101345.22;111110;1206;98605;-62
2023/01/21 03:53:12;;;;;;;35.20;14.30;;;;;;;-0.61;88.68;101349.41;110993;1206;139843;-62
2023/01/21 03:55:37;;;;;;;34.90;13.30;;;;;;;-0.61;88.69;101345.38;111251;1206;97680;-62
2023/01/21 03:58:02;;;;;;;34.50;14.70;;;;;;;-0.59;88.74;101346.81;111020;1209;141083;-62
2023/01/21 04:00:28;;;;;;;37.40;15.00;;;;;;;-0.59;88.63;101345.41;111108;1208;97576;-61
2023/01/21 04:02:53;;;;;;;37.50;15.20;;;;;;;-0.59;88.64;101345.60;111127;1208;97778;-61
2023/01/21 04:05:18;;;;;;;38.70;14.40;;;;;;;-0.56;88.72;101342.11;110923;1208;140877;-61
2023/01/21 04:07:43;;;;;;;35.90;13.60;;;;;;;-0.56;88.75;101341.07;110975;1211;97911;-61
2023/01/21 04:10:10;;;;;;;36.90;14.90;;;;;;;-0.59;88.50;101344.71;111095;1206;140325;-61
2023/01/21 04:12:35;;;;;;;44.50;15.70;;;;;;;-0.60;88.65;101341.55;111165;1208;97621;-61
2023/01/21 04:15:00;;;;;;;33.10;14.20;;;;;;;-0.59;88.49;101340.15;111090;1208;97535;-61
2023/01/21 04:17:27;;;;;;;37.50;13.70;;;;;;;-0.59;88.65;101337.52;111045;1206;138655;-61
2023/01/21 04:19:52;;;;;;;34.20;13.30;;;;;;;-0.58;88.63;101338.41;110979;1208;97597;-62
2023/01/21 04:22:19;;;;;;;34.20;13.70;;;;;;;-0.55;88.65;101334.41;111055;1206;140288;-61
2023/01/21 04:24:45;;;;;;;35.80;12.50;;;;;;;-0.51;88.69;101329.89;111136;1206;97689;-61
2023/01/21 04:27:10;;;;;;;40.50;14.00;;;;;;;-0.49;88.67;101330.62;111116;1208;97878;-62
2023/01/21 04:29:35;;;;;;;37.50;14.90;;;;;;;-0.48;88.75;101326.43;111005;1206;139471;-61
2023/01/21 04:32:01;;;;;;;34.10;12.80;;;;;;;-0.47;88.76;101320.47;111115;1205;98112;-61
2023/01/21 04:34:26;;;;;;;34.70;12.60;;;;;;;-0.46;88.63;101323.29;111015;1206;139165;-61
2023/01/21 04:36:51;;;;;;;34.80;14.40;;;;;;;-0.46;88.42;101325.92;111268;1205;97623;-61
2023/01/21 04:39:16;;;;;;;39.20;14.00;;;;;;;-0.47;88.52;101322.39;111005;1212;97985;-61
2023/01/21 04:41:42;;;;;;;34.20;12.70;;;;;;;-0.47;88.61;101328.89;110954;1206;139262;-61
2023/01/21 04:44:07;;;;;;;50.60;15.90;;;;;;;-0.47;88.48;101322.91;111076;1208;97669;-61
2023/01/21 04:46:32;;;;;;;33.00;13.10;;;;;;;-0.47;88.51;101326.09;110991;1208;137709;-61
2023/01/21 04:48:57;;;;;;;29.40;12.50;;;;;;;-0.46;88.62;101324.87;111155;1206;97890;-61
2023/01/21 04:51:23;;;;;;;31.80;13.80;;;;;;;-0.45;88.58;101321.37;111131;1208;97560;-61
2023/01/21 04:53:48;;;;;;;31.60;13.80;;;;;;;-0.44;88.58;101318.57;111139;1208;140472;-61
2023/01/21 04:56:13;;;;;;;33.80;13.10;;;;;;;-0.46;88.52;101314.69;111007;1208;97699;-61
2023/01/21 04:58:39;;;;;;;27.80;11.30;;;;;;;-0.45;88.57;101309.42;111048;1208;139449;-61
2023/01/21 05:01:04;;;;;;;30.10;12.60;;;;;;;-0.46;88.49;101311.35;111136;1209;97700;-61
2023/01/21 05:03:29;;;;;;;29.40;12.20;;;;;;;-0.46;88.37;101309.41;111114;1206;97599;-61
2023/01/21 05:05:54;;;;;;;34.20;13.20;;;;;;;-0.46;88.48;101309.59;110974;1205;140227;-62
2023/01/21 05:08:20;;;;;;;35.80;13.30;;;;;;;-0.45;88.45;101309.79;111061;1208;99478;-62
2023/01/21 05:10:45;;;;;;;31.90;12.80;;;;;;;-0.45;88.38;101305.73;111099;1218;140495;-61
2023/01/21 05:13:10;;;;;;;36.60;13.80;;;;;;;-0.45;88.45;101305.56;111026;1210;100007;-61
2023/01/21 05:15:36;;;;;;;34.80;13.00;;;;;;;-0.46;88.50;101307.14;111104;1206;97611;-62
2023/01/21 05:18:01;;;;;;;26.00;10.80;;;;;;;-0.46;88.46;101309.95;111039;1208;138570;-62
2023/01/21 05:20:26;;;;;;;34.50;13.20;;;;;;;-0.47;88.23;101305.55;110994;1208;98450;-62
2023/01/21 05:22:52;;;;;;;29.50;12.30;;;;;;;-0.48;88.28;101311.68;110934;1208;139237;-62
2023/01/21 05:25:17;;;;;;;30.00;12.90;;;;;;;-0.47;88.41;101323.27;111085;1206;100561;-62
2023/01/21 05:27:42;;;;;;;33.20;13.20;;;;;;;-0.46;88.39;101323.46;111067;1208;139574;-62
2023/01/21 05:30:09;;;;;;;33.90;14.00;;;;;;;-0.44;88.28;101323.83;111024;1208;97561;-62
2023/01/21 05:32:35;;;;;;;31.10;12.30;;;;;;;-0.44;88.29;101325.24;111139;1209;97947;-62
2023/01/21 05:35:02;;;;;;;35.30;13.30;;;;;;;-0.44;88.40;101321.38;111057;1205;138646;-62
2023/01/21 05:37:28;;;;;;;33.10;12.80;;;;;;;-0.43;88.38;101320.34;111107;1210;97607;-62
2023/01/21 05:39:53;;;;;;;34.70;13.50;;;;;;;-0.42;88.30;101321.58;111012;1208;139780;-62
2023/01/21 05:42:18;;;;;;;31.10;12.20;;;;;;;-0.41;88.45;101319.14;111101;1206;97777;-62
2023/01/21 05:44:43;;;;;;;37.30;13.20;;;;;;;-0.40;88.31;101317.05;111157;1206;97567;-62
2023/01/21 05:47:09;;;;;;;32.10;12.00;;;;;;;-0.38;88.33;101309.86;110939;1221;139238;-62
2023/01/21 05:49:34;;;;;;;29.80;12.30;;;;;;;-0.36;88.45;101305.33;111135;1206;97616;-62
2023/01/21 05:52:00;;;;;;;30.60;12.80;;;;;;;-0.34;88.21;101306.39;110977;1209;139927;-62
2023/01/21 05:54:25;;;;;;;29.60;11.40;;;;;;;-0.31;88.56;101304.67;111066;1206;96427;-62
2023/01/21 05:56:51;;;;;;;31.10;12.40;;;;;;;-0.29;88.37;101299.42;111197;1208;98102;-62
2023/01/21 05:59:16;;;;;;;30.80;11.60;;;;;;;-0.28;88.22;101298.40;110975;1206;139983;-62
2023/01/21 06:01:41;;;;;;;30.10;11.40;;;;;;;-0.27;88.28;101298.75;111036;1206;97581;-62
2023/01/21 06:04:06;;;;;;;34.70;11.90;;;;;;;-0.23;88.51;101298.98;111106;1209;139397;-62
2023/01/21 06:06:32;;;;;;;33.10;11.60;;;;;;;-0.20;88.31;101301.45;111085;1208;97598;-62
2023/01/21 06:08:57;;;;;;;24.20;9.90;;;;;;;-0.17;88.38;101298.50;111130;1218;98043;-61
2023/01/21 06:11:23;;;;;;;32.00;11.60;;;;;;;-0.15;88.48;101298.52;110969;1209;140663;-61
2023/01/21 06:13:48;;;;;;;24.60;9.70;;;;;;;-0.13;88.37;101303.13;111200;1209;97594;-61
2023/01/21 06:16:13;;;;;;;29.70;10.90;;;;;;;-0.11;88.34;101301.21;111084;1206;138757;-63
2023/01/21 06:18:38;;;;;;;24.80;10.70;;;;;;;-0.10;88.24;101306.31;111108;1206;98049;-63
2023/01/21 06:21:04;;;;;;;27.10;11.40;;;;;;;-0.08;88.40;101302.48;111107;1208;97741;-61
2023/01/21 06:23:29;;;;;;;25.90;10.00;;;;;;;-0.07;88.33;101304.59;110987;1207;139387;-63
2023/01/21 06:26:01;;;;;;;23.90;9.80;;;;;;;-0.06;88.23;101300.20;111107;1207;98031;-64
2023/01/21 06:28:28;;;;;;;21.10;8.90;;;;;;;-0.04;88.15;101302.88;111055;1208;139705;-61
2023/01/21 06:30:53;;;;;;;25.10;10.30;;;;;;;-0.02;88.46;101299.02;111138;1208;97636;-61
2023/01/21 06:33:19;;;;;;;19.90;8.80;;;;;;;0.00;88.37;101302.01;111167;1208;98406;-63
2023/01/21 06:35:44;;;;;;;22.70;9.30;;;;;;;0.03;88.19;101307.65;110977;1208;141165;-63
2023/01/21 06:38:09;;;;;;;26.00;9.70;;;;;;;0.06;88.32;101304.85;111093;1222;97628;-64
2023/01/21 06:40:35;;;;;;;22.70;8.90;;;;;;;0.06;88.11;101306.10;111019;1211;140126;-63
2023/01/21 06:43:00;;;;;;;20.80;8.50;;;;;;;0.07;88.24;101313.30;111124;1209;97588;-61
2023/01/21 06:45:25;;;;;;;23.50;9.80;;;;;;;0.08;88.32;101311.56;111188;1205;99303;-62
2023/01/21 06:47:51;;;;;;;24.90;9.80;;;;;;;0.11;88.20;101309.84;110897;1208;140443;-61
2023/01/21 06:50:16;;;;;;;18.40;7.70;;;;;;;0.14;88.18;101304.06;111117;1206;97646;-62
2023/01/21 06:52:44;;;;;;;24.60;9.10;;;;;;;0.17;88.34;101302.69;111028;1205;143542;-62
2023/01/21 06:55:11;;;;;;;22.50;8.70;;;;;;;0.19;88.12;101298.31;111049;1222;97218;-61
2023/01/21 06:57:37;;;;;;;21.10;8.90;;;;;;;0.20;88.12;101294.10;111087;1206;97651;-62
2023/01/21 07:00:04;;;;;;;19.50;8.50;;;;;;;0.21;88.06;101294.30;111144;1206;97776;-62
2023/01/21 07:02:29;;;;;;;19.70;8.40;;;;;;;0.22;87.97;101295.36;111154;1209;96565;-62
2023/01/21 07:04:55;;;;;;;27.20;9.10;;;;;;;0.23;88.22;101290.61;110978;1205;140355;-62
2023/01/21 07:07:20;;;;;;;26.10;10.20;;;;;;;0.25;88.18;101288.70;111115;1209;97189;-62
2023/01/21 07:09:45;;;;;;;22.40;9.10;;;;;;;0.28;88.11;101291.71;111108;1209;138821;-62
2023/01/21 07:12:11;;;;;;;19.30;8.60;;;;;;;0.30;87.95;101288.05;111091;1208;97734;-62
2023/01/21 07:14:36;;;;;;;21.70;9.00;;;;;;;0.33;88.09;101289.65;111139;1206;97578;-62
2023/01/21 07:17:01;;;;;;;21.50;8.60;;;;;;;0.36;88.04;101285.28;110999;1206;138267;-63
2023/01/21 07:19:27;;;;;;;17.00;7.70;;;;;;;0.38;87.97;101281.42;111058;1209;97737;-61
2023/01/21 07:21:53;;;;;;;21.90;8.90;;;;;;;0.39;87.97;101286.00;110997;1208;139867;-63
2023/01/21 07:24:18;;;;;;;21.10;8.90;;;;;;;0.41;87.98;101283.56;111258;1208;97594;-63
2023/01/21 07:26:44;;;;;;;16.40;8.40;;;;;;;0.43;87.96;101281.65;111078;1206;97764;-63
2023/01/21 07:29:09;;;;;;;19.60;7.10;;;;;;;0.45;87.93;101284.83;111032;1209;138809;-62
2023/01/21 07:31:35;;;;;;;18.50;8.00;;;;;;;0.48;87.96;101279.58;111095;1209;97722;-62
2023/01/21 07:34:00;;;;;;;21.40;8.70;;;;;;;0.49;88.02;101276.95;110946;1208;140121;-63
2023/01/21 07:36:26;;;;;;;16.50;7.70;;;;;;;0.51;88.00;101279.26;110933;1206;107274;-62
2023/01/21 07:38:52;;;;;;;16.70;7.00;;;;;;;0.51;88.04;101280.31;110958;1208;97689;-62
2023/01/21 07:41:17;;;;;;;17.70;7.00;;;;;;;0.52;87.91;101276.98;110945;1206;139029;-62
2023/01/21 07:43:42;;;;;;;18.70;7.10;;;;;;;0.54;87.96;101274.35;111031;1209;97666;-64
2023/01/21 07:46:08;;;;;;;17.70;7.90;;;;;;;0.57;88.06;101272.45;110776;1219;139340;-63
2023/01/21 07:48:33;;;;;;;17.50;7.00;;;;;;;0.60;87.92;101274.04;111072;1209;97661;-63
2023/01/21 07:50:59;;;;;;;16.70;7.30;;;;;;;0.63;87.84;101271.07;111009;1206;99185;-63
2023/01/21 07:53:25;;;;;;;21.10;7.10;;;;;;;0.65;87.97;101268.81;111458;1206;140222;-63
2023/01/21 07:55:51;;;;;;;22.70;7.00;;;;;;;0.67;87.90;101266.89;111034;1206;97690;-63
2023/01/21 07:58:16;;;;;;;21.60;8.10;;;;;;;0.69;87.86;101264.61;110904;1209;139132;-63
2023/01/21 08:00:41;;;;;;;15.50;6.80;;;;;;;0.71;87.70;101266.38;111026;1206;97709;-64
2023/01/21 08:03:07;;;;;;;19.80;7.20;;;;;;;0.74;87.86;101263.23;110897;1211;97512;-64
2023/01/21 08:05:32;;;;;;;18.40;6.50;;;;;;;0.74;87.86;101262.35;110972;1208;140165;-64
2023/01/21 08:07:58;;;;;;;17.20;7.50;;;;;;;0.74;87.76;101264.28;111013;1220;97595;-63
2023/01/21 08:10:24;;;;;;;19.30;6.60;;;;;;;0.75;87.92;101261.66;110905;1221;139779;-63
2023/01/21 08:12:49;;;;;;;16.70;7.30;;;;;;;0.74;87.76;101258.30;110989;1210;96593;-63
2023/01/21 08:15:14;;;;;;;13.40;6.20;;;;;;;0.71;87.49;101251.96;110993;1208;97762;-63
2023/01/21 08:17:44;;;;;;;17.80;7.00;;;;;;;0.69;87.64;101253.17;110904;1207;140698;-63
2023/01/21 08:20:10;;;;;;;13.60;6.10;;;;;;;0.71;87.72;101251.26;113286;1206;100826;-63
2023/01/21 08:22:36;;;;;;;16.90;6.70;;;;;;;0.71;87.65;101244.21;113209;1205;138635;-63
2023/01/21 08:25:03;;;;;;;19.00;8.30;;;;;;;0.72;87.72;101238.95;111234;1205;97619;-63
2023/01/21 08:27:30;;;;;;;15.40;6.60;;;;;;;0.72;87.59;101237.72;110995;1208;111599;-63
2023/01/21 08:29:55;;;;;;;20.50;9.50;;;;;;;0.71;87.68;101231.20;110883;1208;139326;-63
2023/01/21 08:32:20;;;;;;;13.20;6.20;;;;;;;0.70;87.51;101225.04;111012;1206;98911;-63
2023/01/21 08:34:46;;;;;;;14.50;5.90;;;;;;;0.69;87.48;101225.91;110765;1208;139083;-63
2023/01/21 08:37:11;;;;;;;15.10;6.10;;;;;;;0.69;87.47;101225.73;110918;1206;97642;-62
2023/01/21 08:39:36;;;;;;;15.30;5.70;;;;;;;0.69;87.60;101224.67;111013;1206;97702;-62
2023/01/21 08:42:02;;;;;;;12.90;6.00;;;;;;;0.71;87.65;101224.52;110931;1208;139427;-62
2023/01/21 08:44:27;;;;;;;13.80;5.70;;;;;;;0.71;87.61;101223.46;111093;1206;97783;-63
2023/01/21 08:46:53;;;;;;;8.00;4.20;;;;;;;0.70;87.41;101218.00;111026;1210;138340;-62
2023/01/21 08:49:18;;;;;;;15.20;5.80;;;;;;;0.69;87.49;101211.49;111181;1208;98149;-63
2023/01/21 08:51:44;;;;;;;14.40;5.10;;;;;;;0.68;87.55;101213.59;111048;1208;138778;-63
2023/01/21 08:54:09;;;;;;;8.10;4.30;;;;;;;0.67;87.57;101207.61;111060;1206;97700;-63
2023/01/21 08:56:34;;;;;;;15.60;6.30;;;;;;;0.63;87.48;101212.86;111130;1205;97590;-64
2023/01/21 08:59:01;;;;;;;18.40;5.80;;;;;;;0.59;87.49;101210.90;110830;1211;140844;-63
2023/01/21 09:01:28;;;;;;;13.90;5.00;;;;;;;0.55;87.63;101206.13;111146;1206;97601;-63
2023/01/21 09:03:57;;;;;;;11.00;5.40;;;;;;;0.54;87.56;101206.83;111092;1215;140492;-61
2023/01/21 09:06:25;;;;;;;12.80;5.80;;;;;;;0.53;87.74;101205.59;111093;1208;98727;-64
2023/01/21 09:08:50;;;;;;;20.90;6.20;;;;;;;0.52;87.76;101200.66;111133;1210;97598;-62
2023/01/21 09:11:16;;;;;;;18.50;5.70;;;;;;;0.51;88.01;101204.88;110987;1206;138398;-62
2023/01/21 09:13:43;;;;;;;13.60;6.50;;;;;;;0.51;88.00;101200.84;111154;1219;97655;-63
2023/01/21 09:16:15;;;;;;;12.20;3.90;;;;;;;0.50;88.03;101196.08;110931;1208;140849;-68
2023/01/21 09:18:41;;;;;;;19.80;6.90;;;;;;;0.48;88.22;101186.92;111448;1206;107278;-62
2023/01/21 09:21:07;;;;;;;12.30;4.70;;;;;;;0.45;88.15;101189.00;111187;1208;97691;-62
2023/01/21 09:23:33;;;;;;;12.00;3.80;;;;;;;0.40;88.48;101183.52;110911;1206;140734;-62
2023/01/21 09:26:06;;;;;;;13.40;5.20;;;;;;;0.38;88.33;101181.23;111116;1206;98476;-61
2023/01/21 09:28:34;;;;;;;15.80;5.20;;;;;;;0.35;88.49;101181.91;110939;1205;138766;-61
2023/01/21 09:31:02;;;;;;;17.30;6.20;;;;;;;0.36;88.62;101176.29;111044;1210;97714;-62
2023/01/21 09:33:29;;;;;;;13.00;5.00;;;;;;;0.32;88.87;101169.94;111056;1206;97703;-62
2023/01/21 09:35:59;;;;;;;11.20;5.00;;;;;;;0.31;88.95;101167.12;111035;1206;139377;-61
2023/01/21 09:38:25;;;;;;;13.60;5.70;;;;;;;0.31;88.91;101163.95;111168;1209;100674;-61
2023/01/21 09:40:52;;;;;;;11.30;5.50;;;;;;;0.31;89.16;101163.61;110946;1206;138959;-61
2023/01/21 09:43:39;;;;;;;10.30;4.60;;;;;;;0.34;89.21;101159.76;111287;1207;97613;-62
2023/01/21 09:46:13;;;;;;;9.40;4.20;;;;;;;0.34;89.45;101155.02;111104;1208;138424;-61
2023/01/21 09:48:42;;;;;;;14.80;4.70;;;;;;;0.30;89.43;101147.79;111171;1220;112106;-61
2023/01/21 09:51:25;;;;;;;11.80;4.30;;;;;;;0.27;89.51;101140.73;111135;1209;100023;-61
2023/01/21 09:53:55;;;;;;;7.90;4.30;;;;;;;0.22;89.74;101134.02;111005;1208;139727;-61
2023/01/21 09:56:33;;;;;;;10.80;4.40;;;;;;;0.18;90.09;101125.73;111172;1209;97673;-61
2023/01/21 09:59:05;;;;;;;15.70;5.30;;;;;;;0.14;90.28;101129.05;111032;1208;138542;-61
2023/01/21 10:01:35;;;;;;;11.20;4.60;;;;;;;0.09;90.35;101124.09;111252;1206;111869;-62
2023/01/21 10:04:32;;;;;;;8.50;4.50;;;;;;;0.07;90.52;101120.91;111007;1206;140403;-62
2023/01/21 10:07:16;;;;;;;10.90;4.20;;;;;;;0.03;90.77;101114.21;111139;1206;108161;-62
2023/01/21 10:09:54;;;;;;;12.80;5.10;;;;;;;0.01;91.00;101112.45;111069;1206;140730;-62
2023/01/21 10:12:27;;;;;;;12.30;4.70;;;;;;;-0.02;90.94;101107.19;111156;1206;97944;-63
2023/01/21 10:15:12;;;;;;;12.10;5.00;;;;;;;-0.04;91.36;101110.16;111145;1210;110997;-63
2023/01/21 10:17:58;;;;;;;11.00;4.60;;;;;;;-0.04;91.39;101109.63;111075;1209;138733;-63
2023/01/21 10:20:31;;;;;;;8.90;4.20;;;;;;;-0.04;91.49;101108.58;111158;1206;108228;-62
2023/01/21 10:23:03;;;;;;;9.70;4.20;;;;;;;-0.05;91.57;101105.23;111003;1219;140816;-62
2023/01/21 10:25:32;;;;;;;10.30;4.60;;;;;;;-0.05;91.65;101112.77;111183;1209;97674;-63
2023/01/21 10:28:09;;;;;;;11.40;4.30;;;;;;;-0.03;91.57;101118.23;111059;1206;138632;-62
2023/01/21 10:30:42;;;;;;;7.30;3.90;;;;;;;-0.02;91.79;101118.60;111174;1209;100907;-63
2023/01/21 10:33:21;;;;;;;9.50;4.10;;;;;;;-0.01;91.92;101117.21;111144;1210;108098;-63
2023/01/21 10:36:08;;;;;;;8.70;4.00;;;;;;;0.01;91.88;101115.79;111035;1205;139963;-63
2023/01/21 10:38:52;;;;;;;8.10;4.10;;;;;;;-0.01;91.99;101115.97;111209;1220;97785;-63
2023/01/21 10:41:35;;;;;;;8.10;3.90;;;;;;;-0.04;91.94;101120.17;111065;1208;138748;-63
2023/01/21 10:44:12;;;;;;;8.70;4.60;;;;;;;-0.03;92.18;101119.98;111226;1206;100035;-63
2023/01/21 10:46:52;;;;;;;9.30;3.90;;;;;;;-0.04;92.12;101115.59;111077;1209;140544;-65
2023/01/21 10:49:44;;;;;;;10.30;3.70;;;;;;;-0.04;92.36;101119.45;111212;1206;98355;-64
2023/01/21 10:52:17;;;;;;;5.50;3.60;;;;;;;-0.02;92.49;101120.88;110788;1209;141061;-63
2023/01/21 10:54:59;;;;;;;5.80;3.40;;;;;;;0.01;92.50;101123.34;111195;1209;110832;-64
2023/01/21 10:57:28;;;;;;;15.50;6.70;;;;;;;0.02;92.57;101119.13;111239;1206;100429;-64
2023/01/21 10:59:58;;;;;;;9.80;4.30;;;;;;;0.05;92.77;101120.90;111062;1208;138641;-63
2023/01/21 11:02:33;;;;;;;9.40;4.40;;;;;;;0.06;92.68;101122.48;111169;1220;97600;-64
2023/01/21 11:05:03;;;;;;;8.90;4.60;;;;;;;0.07;92.74;101119.33;111076;1220;139864;-64
2023/01/21 11:07:36;;;;;;;8.80;4.50;;;;;;;0.09;92.64;101124.27;111175;1208;111979;-64
2023/01/21 11:10:04;;;;;;;9.80;4.70;;;;;;;0.09;92.81;101122.86;111047;1209;140693;-64
2023/01/21 11:12:38;;;;;;;8.70;4.70;;;;;;;0.11;92.76;101117.42;111203;1222;108242;-64
2023/01/21 11:15:13;;;;;;;5.60;3.20;;;;;;;0.12;92.83;101122.70;111196;1209;97665;-63
2023/01/21 11:17:42;;;;;;;6.40;4.10;;;;;;;0.13;92.83;101113.23;111173;1208;138343;-63